LFMP/PGF METAR and TAF weather

Enter ICAO airport designator
Station Type Date Time Source
LFMP METAR 2018/12/11 22:00 UTC NOAA

LFMP 112200Z AUTO 27004KT CAVOK 05/03 Q1020


Station Type Date Time Source
LFMP Decoded METAR 2018/12/11 22:00 UTC NOAA

Perpignan, France (LFMP) 42-44N 002-52E 48M
Dec 11, 2018 - 05:00 PM EST / 2018.12.11 2200 UTC
Wind: from the W (270 degrees) at 5 MPH (4 KT):0
Visibility: greater than 7 mile(s):0
Temperature: 41 F (5 C)
Dew Point: 37 F (3 C)
Relative Humidity: 86%
Pressure (altimeter): 30.12 in. Hg (1020 hPa)
ob: LFMP 112200Z AUTO 27004KT CAVOK 05/03 Q1020
cycle: 22

Station Type Date Time Source
LFMP TAF 2018/12/11 21:36 UTC NOAA

TAF TAF LFMP 112131Z 1121/1215 CNL


Example: see airport list